Time;durP1;ratioP1;P1;durP2;ratioP2;P2;SDS_P1;SDS_P2;PMS_P1;PMS_P2;Temp;Humidity;BMP_temperature;BMP_pressure;BME280_temperature;BME280_humidity;BME280_pressure;Samples;Min_cycle;Max_cycle;Signal;HPM_P1;HPM_P2
2021/07/08 00:02:09;;;;;;;;;12.60;11.80;;;;;23.69;69.00;101658.75;6309917;22;9607;-84
2021/07/08 00:05:15;;;;;;;;;9.80;9.80;;;;;23.55;69.17;101654.66;6307765;22;9654;-83
2021/07/08 00:08:12;;;;;;;;;8.00;8.00;;;;;23.48;66.31;101657.47;6306797;22;8765;-82
2021/07/08 00:11:08;;;;;;;;;10.00;10.00;;;;;23.55;67.35;101648.22;6307499;22;8870;-81
2021/07/08 00:14:04;;;;;;;;;9.60;9.60;;;;;23.44;66.55;101655.81;6286060;22;8803;-82
2021/07/08 00:17:00;;;;;;;;;10.60;10.60;;;;;23.53;67.55;101657.06;6305776;22;8856;-81
2021/07/08 00:19:56;;;;;;;;;8.60;8.60;;;;;23.47;66.14;101664.31;6305188;22;8789;-82
2021/07/08 00:22:52;;;;;;;;;9.20;9.20;;;;;23.50;66.28;101662.69;6307090;22;8890;-80
2021/07/08 00:25:50;;;;;;;;;9.80;9.80;;;;;23.57;66.21;101666.38;6305705;22;8907;-82
2021/07/08 00:28:46;;;;;;;;;9.80;9.80;;;;;23.70;68.31;101666.06;6285389;22;8812;-82
2021/07/08 00:31:41;;;;;;;;;4.60;4.60;;;;;23.56;66.40;101678.88;6305551;22;8769;-83
2021/07/08 00:34:37;;;;;;;;;9.80;9.80;;;;;23.68;68.47;101682.56;6309339;22;9533;-83
2021/07/08 00:37:32;;;;;;;;;9.20;9.20;;;;;23.77;68.97;101678.19;6305981;22;8808;-83
2021/07/08 00:40:28;;;;;;;;;11.20;11.20;;;;;23.74;67.37;101678.16;6288200;22;8792;-85
2021/07/08 00:43:30;;;;;;;;;12.20;12.20;;;;;23.80;67.68;101682.22;6310203;22;8773;-83
2021/07/08 00:46:26;;;;;;;;;10.40;10.40;;;;;23.81;67.96;101678.19;6306306;22;8803;-85
2021/07/08 00:49:22;;;;;;;;;10.20;10.20;;;;;23.80;66.55;101687.88;6285508;22;8765;-81
2021/07/08 00:52:18;;;;;;;;;10.60;10.60;;;;;23.68;65.70;101691.84;6307453;22;8866;-82
2021/07/08 00:55:14;;;;;;;;;12.20;12.20;;;;;23.73;67.68;101688.66;6306294;22;8769;-82
2021/07/08 00:58:10;;;;;;;;;10.40;10.40;;;;;23.67;64.93;101684.59;6306268;22;8812;-81
2021/07/08 01:01:06;;;;;;;;;9.00;9.00;;;;;23.66;64.36;101690.63;6305208;22;8788;-81
2021/07/08 01:04:02;;;;;;;;;10.00;10.00;;;;;23.62;67.33;101692.63;6273309;22;8884;-80
2021/07/08 01:06:58;;;;;;;;;7.00;7.00;;;;;23.70;68.13;101695.09;6275515;22;8879;-81
2021/07/08 01:09:54;;;;;;;;;9.80;9.80;;;;;23.60;65.56;101698.66;6275441;22;8793;-81
2021/07/08 01:12:50;;;;;;;;;12.20;12.20;;;;;23.46;67.94;101701.38;6273423;22;8829;-82
2021/07/08 01:15:45;;;;;;;;;9.60;9.60;;;;;23.44;68.26;101707.44;6275891;22;8813;-82
2021/07/08 01:18:41;;;;;;;;;11.00;11.00;;;;;23.32;67.42;101702.13;6275677;22;8778;-80
2021/07/08 01:21:37;;;;;;;;;9.00;9.00;;;;;23.23;64.90;101718.59;6275464;22;8805;-81
2021/07/08 01:24:33;;;;;;;;;9.40;9.40;;;;;23.32;66.76;101710.59;6273458;22;8767;-82
2021/07/08 01:27:31;;;;;;;;;9.20;9.20;;;;;23.18;66.57;101716.97;6274203;22;8821;-83
2021/07/08 01:30:28;;;;;;;;;11.00;11.00;;;;;23.08;67.09;101714.03;6273425;22;8774;-82
2021/07/08 01:33:23;;;;;;;;;8.80;8.80;;;;;23.02;66.88;101708.78;6291291;22;8790;-82
2021/07/08 01:36:19;;;;;;;;;9.60;9.60;;;;;23.11;68.04;101724.56;6277446;22;8936;-82
2021/07/08 01:39:14;;;;;;;;;3.80;3.80;;;;;23.23;68.26;101722.25;6275428;22;8793;-82
2021/07/08 01:42:10;;;;;;;;;11.00;11.00;;;;;23.21;66.31;101721.00;6280817;22;8851;-81
2021/07/08 01:45:08;;;;;;;;;8.20;8.20;;;;;23.29;66.24;101725.47;6277712;22;8771;-82
2021/07/08 01:48:03;;;;;;;;;8.00;8.00;;;;;23.03;64.45;101732.97;6277156;22;8797;-82
2021/07/08 01:51:05;;;;;;;;;9.40;9.40;;;;;22.99;66.37;101728.50;6277233;22;8853;-83
2021/07/08 01:54:02;;;;;;;;;10.00;10.00;;;;;23.12;67.76;101721.34;6275536;22;8782;-83
2021/07/08 01:56:57;;;;;;;;;8.60;8.20;;;;;23.10;67.62;101720.94;6277660;22;8802;-82
2021/07/08 01:59:53;;;;;;;;;9.00;9.00;;;;;23.12;66.67;101726.19;6277193;22;8774;-82
2021/07/08 02:02:49;;;;;;;;;8.00;8.00;;;;;23.01;64.29;101721.28;6287172;22;8780;-80
2021/07/08 02:05:45;;;;;;;;;8.40;8.40;;;;;23.04;66.20;101730.97;6287322;22;8857;-82
2021/07/08 02:08:42;;;;;;;;;8.20;8.20;;;;;23.11;67.62;101733.84;6287175;22;8772;-82
2021/07/08 02:11:39;;;;;;;;;9.00;9.00;;;;;22.99;64.71;101734.13;6307276;22;8870;-82
2021/07/08 02:14:34;;;;;;;;;8.80;8.80;;;;;22.95;64.45;101747.41;6286823;22;8862;-83
2021/07/08 02:17:30;;;;;;;;;10.00;8.80;;;;;23.06;64.77;101739.03;6306513;22;8761;-83
2021/07/08 02:20:26;;;;;;;;;9.40;9.40;;;;;23.09;67.25;101750.34;6308024;22;8784;-82
2021/07/08 02:23:22;;;;;;;;;7.40;7.20;;;;;22.85;63.76;101751.78;6308075;22;8788;-83
2021/07/08 02:26:17;;;;;;;;;7.60;7.60;;;;;23.06;65.13;101745.47;6307110;22;8781;-84
2021/07/08 02:29:14;;;;;;;;;6.80;6.80;;;;;23.08;64.19;101747.91;6308063;22;9487;-82
2021/07/08 02:32:09;;;;;;;;;8.40;8.40;;;;;23.05;64.48;101754.34;6313849;22;8816;-84
2021/07/08 02:35:07;;;;;;;;;8.60;8.00;;;;;23.26;66.74;101754.50;6306609;22;8955;-83
2021/07/08 02:38:03;;;;;;;;;7.20;7.20;;;;;22.99;65.42;101756.69;6311849;22;8899;-82
2021/07/08 02:41:00;;;;;;;;;8.60;8.60;;;;;22.69;62.64;101759.63;6310645;22;8835;-82
2021/07/08 02:43:55;;;;;;;;;6.20;6.20;;;;;22.73;65.05;101757.66;6308586;22;8773;-82
2021/07/08 02:46:51;;;;;;;;;8.20;8.20;;;;;22.97;67.19;101765.56;6308058;22;8769;-83
2021/07/08 02:49:47;;;;;;;;;7.00;7.00;;;;;22.71;63.56;101774.16;6307044;22;8780;-83
2021/07/08 02:52:43;;;;;;;;;8.80;8.80;;;;;22.76;63.61;101765.34;6309342;22;8769;-82
2021/07/08 02:55:40;;;;;;;;;6.20;6.20;;;;;22.74;63.64;101767.75;6308002;22;9636;-84
2021/07/08 02:58:36;;;;;;;;;8.20;8.20;;;;;22.79;66.16;101766.59;6306658;22;8777;-82
2021/07/08 03:01:31;;;;;;;;;8.00;8.00;;;;;22.74;67.05;101768.56;6286602;22;8777;-84
2021/07/08 03:04:27;;;;;;;;;24.50;24.50;;;;;22.73;64.22;101771.75;6298835;22;8778;-83
2021/07/08 03:07:22;;;;;;;;;13.00;13.00;;;;;22.60;66.54;101774.03;6277253;22;8782;-84
2021/07/08 03:10:21;;;;;;;;;16.50;16.50;;;;;22.87;67.28;101779.59;6274334;22;8790;-83
2021/07/08 03:13:17;;;;;;;;;22.50;21.50;;;;;22.65;64.05;101775.72;6276730;22;8798;-84
2021/07/08 03:16:13;;;;;;;;;19.25;18.50;;;;;22.66;65.32;101777.34;6274400;22;8801;-83
2021/07/08 03:19:08;;;;;;;;;19.20;18.20;;;;;22.77;65.78;101778.22;6293681;22;8805;-82
2021/07/08 03:22:04;;;;;;;;;12.40;12.40;;;;;23.00;66.03;101786.53;6276912;22;8785;-83
2021/07/08 03:25:00;;;;;;;;;15.50;15.50;;;;;22.89;67.18;101785.63;6276534;22;8806;-82
2021/07/08 03:27:56;;;;;;;;;13.00;13.00;;;;;23.00;65.40;101792.16;6274030;22;8770;-83
2021/07/08 03:30:52;;;;;;;;;14.60;14.60;;;;;23.00;66.75;101793.00;6276214;22;8804;-82
2021/07/08 03:33:48;;;;;;;;;13.00;13.00;;;;;22.96;66.20;101794.97;6274107;22;8805;-83
2021/07/08 03:36:43;;;;;;;;;15.00;15.00;;;;;22.95;66.58;101803.84;6277075;22;8809;-82
2021/07/08 03:39:39;;;;;;;;;9.80;9.80;;;;;22.92;64.91;101796.94;6276150;22;8848;-82
2021/07/08 03:42:36;;;;;;;;;10.60;10.60;;;;;22.89;64.48;101809.00;6273973;22;9560;-81
2021/07/08 03:45:31;;;;;;;;;9.60;9.60;;;;;23.06;63.91;101809.56;6277074;22;8806;-82
2021/07/08 03:48:27;;;;;;;;;9.80;9.80;;;;;23.06;64.46;101809.56;6293066;22;8786;-83
2021/07/08 03:51:22;;;;;;;;;10.00;10.00;;;;;23.16;65.31;101812.50;6275769;22;8767;-82
2021/07/08 03:54:18;;;;;;;;;11.40;11.40;;;;;23.44;65.79;101814.69;6295250;22;8889;-83
2021/07/08 03:57:13;;;;;;;;;11.20;11.20;;;;;23.43;65.03;101813.09;6276118;22;8806;-83
2021/07/08 04:00:10;;;;;;;;;10.40;10.40;;;;;23.61;64.54;101821.69;6276011;22;8829;-83
2021/07/08 04:03:10;;;;;;;;;11.60;11.60;;;;;23.61;64.06;101813.22;6289362;22;8769;-85
2021/07/08 04:05:39;;;;;;;;;12.20;12.20;;;;;23.85;65.03;101821.06;6320437;22;8781;-82
2021/07/08 04:08:35;;;;;;;;;13.80;13.80;;;;;23.91;63.83;101820.69;6306583;22;8788;-82
2021/07/08 04:11:30;;;;;;;;;13.00;13.00;;;;;23.89;62.95;101821.06;6306028;22;8801;-81
2021/07/08 04:14:26;;;;;;;;;11.80;11.80;;;;;23.88;63.50;101827.13;6306002;22;8773;-82
2021/07/08 04:17:22;;;;;;;;;13.60;13.60;;;;;23.90;62.82;101824.72;6286134;22;8781;-81
2021/07/08 04:20:20;;;;;;;;;11.40;11.40;;;;;23.62;60.70;101822.50;6305177;22;8797;-82
2021/07/08 04:22:49;;;;;;;;;14.60;14.60;;;;;23.97;63.73;101839.69;6289242;22;8784;-82
2021/07/08 04:25:45;;;;;;;;;13.80;13.80;;;;;23.95;60.13;101835.66;6306554;22;8862;-82
2021/07/08 04:28:41;;;;;;;;;12.60;12.60;;;;;24.15;62.38;101836.94;6284905;22;9512;-83
2021/07/08 04:31:15;;;;;;;;;13.80;13.20;;;;;24.24;61.03;101840.22;6289439;22;8801;-82
2021/07/08 04:34:10;;;;;;;;;13.00;12.60;;;;;24.20;61.08;101836.56;6284939;22;8792;-82
2021/07/08 04:37:06;;;;;;;;;10.00;10.00;;;;;24.45;61.17;101833.84;6304602;22;8777;-83
2021/07/08 04:40:02;;;;;;;;;10.00;10.00;;;;;24.38;61.23;101850.78;6305054;22;8907;-84
2021/07/08 04:42:58;;;;;;;;;13.80;12.40;;;;;24.49;60.73;101839.53;6305554;22;8781;-84
2021/07/08 04:45:55;;;;;;;;;13.00;13.00;;;;;24.54;61.66;101842.81;6305537;22;8899;-82
2021/07/08 04:48:51;;;;;;;;;10.20;10.20;;;;;24.57;60.24;101842.00;6304882;22;8785;-82
2021/07/08 04:51:46;;;;;;;;;12.80;12.80;;;;;24.57;60.82;101844.00;6309896;22;8797;-81
2021/07/08 04:54:42;;;;;;;;;11.80;11.80;;;;;24.62;59.17;101844.44;6285231;22;8789;-81
2021/07/08 04:57:38;;;;;;;;;9.60;9.60;;;;;24.85;60.00;101841.25;6305691;22;8917;-81
2021/07/08 05:00:33;;;;;;;;;14.00;13.20;;;;;24.83;59.64;101845.69;6305253;22;8881;-81
2021/07/08 05:03:29;;;;;;;;;12.20;12.20;;;;;24.79;58.46;101853.38;6273478;22;8894;-82
2021/07/08 05:06:25;;;;;;;;;12.40;12.40;;;;;24.99;59.17;101857.41;6276863;22;8797;-81
2021/07/08 05:09:20;;;;;;;;;12.40;12.40;;;;;25.10;58.03;101863.94;6278410;22;8865;-82
2021/07/08 05:12:16;;;;;;;;;13.00;13.00;;;;;25.17;58.66;101858.31;6275850;22;8781;-81
2021/07/08 05:15:15;;;;;;;;;30.60;28.00;;;;;24.98;56.59;101864.28;6277954;22;8781;-80
2021/07/08 05:18:10;;;;;;;;;33.25;31.75;;;;;25.24;56.30;101866.00;6275739;22;8797;-82
2021/07/08 05:21:06;;;;;;;;;30.20;28.80;;;;;25.34;56.84;101867.19;6275440;22;9539;-82
2021/07/08 05:24:03;;;;;;;;;23.00;23.00;;;;;25.26;55.52;101869.22;6278713;22;8789;-80
2021/07/08 05:26:59;;;;;;;;;21.40;21.40;;;;;25.47;57.25;101862.75;6277695;22;8814;-81
2021/07/08 05:29:57;;;;;;;;;17.80;17.80;;;;;25.62;56.52;101872.84;6277174;22;8782;-82
2021/07/08 05:32:54;;;;;;;;;16.00;15.20;;;;;25.64;55.46;101867.59;6277369;22;8793;-81
2021/07/08 05:35:49;;;;;;;;;20.00;19.60;;;;;25.78;55.84;101870.44;6277708;22;8833;-82
2021/07/08 05:38:45;;;;;;;;;21.40;21.00;;;;;25.74;54.04;101866.78;6277540;22;8786;-81
2021/07/08 05:41:40;;;;;;;;;20.00;20.00;;;;;25.94;53.03;101867.16;6277178;22;8979;-82
2021/07/08 05:44:36;;;;;;;;;16.80;16.80;;;;;26.05;53.81;101861.44;6274156;22;8790;-81
2021/07/08 05:47:32;;;;;;;;;26.20;26.20;;;;;26.22;54.38;101871.09;6277917;22;8777;-80
2021/07/08 05:50:28;;;;;;;;;19.60;19.60;;;;;26.33;53.32;101875.53;6276092;22;9568;-80
2021/07/08 05:53:23;;;;;;;;;19.00;19.00;;;;;26.28;51.08;101870.28;6277683;22;8885;-81
2021/07/08 05:56:19;;;;;;;;;24.00;24.00;;;;;26.46;52.38;101866.63;6277602;22;8810;-80
2021/07/08 05:59:16;;;;;;;;;13.80;13.80;;;;;26.31;50.75;101877.97;6277024;22;8797;-78
2021/07/08 06:02:11;;;;;;;;;12.00;12.00;;;;;26.37;50.45;101874.69;6280874;22;8794;-80
2021/07/08 06:05:07;;;;;;;;;16.40;16.40;;;;;26.46;51.42;101872.28;6307370;22;8793;-79
2021/07/08 06:08:04;;;;;;;;;13.20;13.20;;;;;26.67;51.48;101871.34;6307216;22;9474;-81
2021/07/08 06:11:00;;;;;;;;;17.20;17.20;;;;;26.75;49.67;101865.22;6287552;22;8800;-81
2021/07/08 06:13:56;;;;;;;;;24.20;24.20;;;;;26.79;50.31;101866.00;6312808;22;8799;-81
2021/07/08 06:16:51;;;;;;;;;21.60;21.40;;;;;26.84;50.67;101864.78;6312704;22;8850;-82
2021/07/08 06:19:47;;;;;;;;;17.20;17.20;;;;;27.09;50.46;101864.63;6309170;22;8781;-80
2021/07/08 06:22:43;;;;;;;;;10.60;10.00;;;;;27.31;50.59;101857.56;6308334;22;8797;-81
2021/07/08 06:25:39;;;;;;;;;16.80;16.80;;;;;27.44;50.28;101867.16;6287664;22;8813;-82
2021/07/08 06:28:35;;;;;;;;;11.00;11.00;;;;;27.53;49.34;101863.88;6307011;22;8895;-80
2021/07/08 06:31:30;;;;;;;;;11.60;11.60;;;;;27.57;49.07;101867.47;6307669;22;8862;-80
2021/07/08 06:34:26;;;;;;;;;9.00;9.00;;;;;27.74;48.87;101867.75;6308061;22;8777;-82
2021/07/08 06:37:22;;;;;;;;;16.20;16.20;;;;;27.66;49.23;101864.94;6306339;22;8777;-80
2021/07/08 06:40:18;;;;;;;;;17.00;17.00;;;;;27.84;49.45;101876.19;6307621;22;8792;-80
2021/07/08 06:43:13;;;;;;;;;23.20;23.20;;;;;28.10;48.97;101877.50;6308728;22;8785;-80
2021/07/08 06:46:09;;;;;;;;;20.60;20.60;;;;;28.22;48.04;101879.00;6307748;22;8897;-83
2021/07/08 06:49:04;;;;;;;;;16.60;16.60;;;;;28.39;48.77;101885.75;6287278;22;8850;-81
2021/07/08 06:52:00;;;;;;;;;11.60;11.60;;;;;28.41;46.79;101871.88;6307175;22;8793;-81
2021/07/08 06:54:56;;;;;;;;;11.00;11.00;;;;;28.39;47.18;101883.69;6290615;22;8800;-82
2021/07/08 06:57:52;;;;;;;;;10.60;10.60;;;;;28.80;47.25;101886.38;6291649;22;8919;-80
2021/07/08 07:00:48;;;;;;;;;14.20;14.20;;;;;28.95;47.66;101884.16;6305070;22;8828;-81
2021/07/08 07:03:44;;;;;;;;;9.60;9.60;;;;;28.82;47.38;101891.66;6306519;22;8789;-82
2021/07/08 07:06:39;;;;;;;;;11.40;11.40;;;;;29.12;47.71;101887.97;6306826;22;8862;-82
2021/07/08 07:09:35;;;;;;;;;11.20;11.20;;;;;29.16;47.57;101890.78;6306995;22;8769;-80
2021/07/08 07:12:30;;;;;;;;;10.60;10.00;;;;;29.17;47.24;101892.38;6307156;22;8785;-82
2021/07/08 07:15:28;;;;;;;;;11.60;11.40;;;;;29.08;48.30;101888.03;6305830;22;8781;-81
2021/07/08 07:18:24;;;;;;;;;12.40;12.40;;;;;29.34;46.67;101886.41;6286010;22;8819;-82
2021/07/08 07:21:20;;;;;;;;;10.40;10.40;;;;;29.52;47.12;101894.69;6306276;22;8824;-82
2021/07/08 07:24:15;;;;;;;;;15.60;15.60;;;;;29.48;46.94;101888.19;6304842;22;8781;-81
2021/07/08 07:27:11;;;;;;;;;8.20;8.20;;;;;29.77;44.72;101890.59;6306566;22;8796;-82
2021/07/08 07:30:07;;;;;;;;;12.00;12.00;;;;;30.10;45.83;101885.91;6306033;22;8781;-81
2021/07/08 07:33:03;;;;;;;;;11.80;11.80;;;;;30.31;45.53;101896.88;6306725;22;8777;-81
2021/07/08 07:35:59;;;;;;;;;15.20;15.20;;;;;30.37;45.46;101895.13;6307017;22;8779;-82
2021/07/08 07:38:55;;;;;;;;;10.60;10.60;;;;;30.51;44.62;101896.06;6307065;22;8801;-81
2021/07/08 07:41:50;;;;;;;;;11.40;11.40;;;;;30.67;44.43;101908.38;6285917;22;9532;-81
2021/07/08 07:44:50;;;;;;;;;10.00;10.00;;;;;30.54;43.90;101900.91;6307171;22;8785;-83
2021/07/08 07:47:51;;;;;;;;;10.00;10.00;;;;;30.82;42.88;101903.13;6306433;22;8796;-82
2021/07/08 07:50:47;;;;;;;;;11.20;11.20;;;;;30.92;43.67;101898.44;6306304;22;8816;-82
2021/07/08 07:53:42;;;;;;;;;9.60;9.60;;;;;30.79;43.38;101906.09;6310451;22;8854;-81
2021/07/08 07:56:38;;;;;;;;;12.80;12.80;;;;;30.99;43.76;101901.13;6307422;22;8862;-82
2021/07/08 07:59:34;;;;;;;;;5.80;5.80;;;;;30.86;42.81;101897.34;6307691;22;8773;-80
2021/07/08 08:02:30;;;;;;;;;7.20;7.20;;;;;30.99;42.54;101892.56;6308316;22;9514;-81
2021/07/08 08:08:34;;;;;;;;;12.60;12.60;;;;;31.10;42.97;101895.97;6306839;22;8809;-81
2021/07/08 08:11:30;;;;;;;;;8.40;8.40;;;;;31.15;42.47;101898.31;6306641;22;8867;-82
2021/07/08 08:14:26;;;;;;;;;37.00;33.40;;;;;31.14;42.60;101901.63;6286506;22;8803;-81
2021/07/08 08:17:21;;;;;;;;;10.60;10.60;;;;;30.90;42.37;101898.06;6310480;22;8887;-82
2021/07/08 08:20:17;;;;;;;;;13.00;12.20;;;;;31.30;41.73;101901.66;6316117;22;8777;-82
2021/07/08 08:23:13;;;;;;;;;8.60;8.60;;;;;31.49;41.67;101903.59;6319976;22;8823;-82
2021/07/08 08:26:09;;;;;;;;;9.20;9.20;;;;;31.40;41.37;101902.63;6310374;22;9521;-81
2021/07/08 08:29:04;;;;;;;;;7.20;7.20;;;;;31.40;40.91;101900.56;6287731;22;8824;-80
2021/07/08 08:32:00;;;;;;;;;6.00;6.00;;;;;31.60;40.29;101906.19;6308689;22;8831;-82
2021/07/08 08:34:55;;;;;;;;;5.00;5.00;;;;;31.49;38.76;101897.88;6307360;22;8875;-81
2021/07/08 08:37:51;;;;;;;;;7.80;7.80;;;;;31.64;39.05;101897.50;6287145;22;8776;-81
2021/07/08 08:40:49;;;;;;;;;5.60;5.60;;;;;31.48;38.81;101898.34;6307131;22;8785;-82
2021/07/08 08:43:44;;;;;;;;;5.00;5.00;;;;;31.54;38.92;101903.06;6307210;22;8793;-81
2021/07/08 08:46:40;;;;;;;;;4.00;4.00;;;;;31.65;39.25;101894.19;6287498;22;8800;-81
2021/07/08 08:49:40;;;;;;;;;10.80;10.80;;;;;31.81;38.86;101885.63;6307110;22;8793;-82
2021/07/08 08:52:36;;;;;;;;;7.20;7.20;;;;;31.93;38.01;101886.94;6308070;22;8807;-80
2021/07/08 08:55:35;;;;;;;;;2.00;2.00;;;;;32.16;38.28;101880.16;6302249;22;8809;-82
2021/07/08 08:58:32;;;;;;;;;4.60;4.60;;;;;31.89;37.92;101877.66;6305853;22;8870;-80
2021/07/08 09:01:30;;;;;;;;;7.00;7.00;;;;;31.88;37.75;101880.97;6288099;22;8823;-81
2021/07/08 09:04:35;;;;;;;;;8.00;8.00;;;;;31.98;38.55;101886.41;6277966;22;8781;-83
2021/07/08 09:07:32;;;;;;;;;6.80;6.80;;;;;32.16;37.66;101885.88;6276706;22;8804;-81
2021/07/08 09:10:29;;;;;;;;;6.00;6.00;;;;;31.97;37.84;101876.19;6274399;22;9526;-80
2021/07/08 09:13:24;;;;;;;;;7.60;7.60;;;;;32.38;37.93;101893.91;6279838;22;8785;-82
2021/07/08 09:16:22;;;;;;;;;7.00;7.00;;;;;32.47;36.42;101885.44;6276096;22;8817;-79
2021/07/08 09:19:25;;;;;;;;;11.00;11.00;;;;;32.46;35.82;101881.78;6275933;22;8826;-80
2021/07/08 09:22:28;;;;;;;;;8.40;8.40;;;;;32.80;35.92;101888.91;6277734;22;8828;-80
2021/07/08 09:25:26;;;;;;;;;7.00;7.00;;;;;32.53;33.77;101880.75;6273672;22;8817;-79
2021/07/08 09:28:23;;;;;;;;;9.00;9.00;;;;;32.79;34.35;101890.97;6276143;22;8786;-80
2021/07/08 09:31:19;;;;;;;;;4.40;4.40;;;;;32.60;31.44;101880.53;6275617;22;8786;-80
2021/07/08 09:34:19;;;;;;;;;6.40;6.40;;;;;32.99;31.63;101887.13;6273374;22;8785;-80
2021/07/08 09:37:17;;;;;;;;;6.60;6.60;;;;;32.92;32.72;101886.09;6275529;22;8793;-80
2021/07/08 09:40:20;;;;;;;;;5.40;5.40;;;;;33.17;33.41;101893.06;6275610;22;8790;-80
2021/07/08 09:43:30;;;;;;;;;4.60;4.60;;;;;33.10;32.99;101891.22;6275887;22;8814;-79
2021/07/08 09:46:36;;;;;;;;;9.40;9.40;;;;;33.12;30.95;101896.50;6273739;22;8786;-80
2021/07/08 09:49:31;;;;;;;;;5.40;5.40;;;;;33.53;30.10;101889.03;6276038;22;8789;-81
2021/07/08 09:52:27;;;;;;;;;11.20;11.20;;;;;33.57;30.99;101883.97;6276517;22;8778;-81
2021/07/08 09:55:31;;;;;;;;;6.20;6.20;;;;;33.54;29.73;101879.97;6278208;22;8782;-81
2021/07/08 09:58:27;;;;;;;;;4.40;4.20;;;;;33.25;29.16;101882.16;6276221;22;8790;-80
2021/07/08 10:01:27;;;;;;;;;7.60;7.40;;;;;33.35;30.70;101878.13;6275532;22;8827;-80
2021/07/08 10:04:23;;;;;;;;;6.40;6.40;;;;;33.50;30.05;101887.06;6289233;22;8829;-79
2021/07/08 10:07:19;;;;;;;;;5.40;4.40;;;;;33.84;29.36;101884.25;6308754;22;8795;-81
2021/07/08 10:10:15;;;;;;;;;4.40;4.40;;;;;33.72;30.54;101885.88;6309170;22;8793;-80
2021/07/08 10:13:12;;;;;;;;;3.40;3.40;;;;;34.33;29.56;101880.81;6290762;22;8819;-80
2021/07/08 10:16:09;;;;;;;;;4.00;4.00;;;;;34.16;29.45;101877.34;6310193;22;8789;-80
2021/07/08 10:19:07;;;;;;;;;3.20;3.20;;;;;34.25;28.66;101871.66;6311435;22;8866;-78
2021/07/08 10:22:03;;;;;;;;;4.20;4.20;;;;;34.13;28.73;101866.81;6309780;22;8807;-80
2021/07/08 10:25:00;;;;;;;;;5.00;5.00;;;;;34.09;28.90;101869.00;6309095;22;8812;-80
2021/07/08 10:27:58;;;;;;;;;8.60;8.60;;;;;34.34;28.91;101862.31;6307851;22;8861;-79
2021/07/08 10:30:54;;;;;;;;;0.00;0.00;;;;;34.78;27.04;101865.94;6308657;22;8793;-80
2021/07/08 10:34:27;;;;;;;;;3.00;3.00;;;;;34.83;28.24;101859.56;6310207;22;9503;-79
2021/07/08 10:37:26;;;;;;;;;2.20;2.20;;;;;35.07;27.80;101865.59;6286598;22;8812;-79
2021/07/08 10:40:27;;;;;;;;;4.00;4.00;;;;;35.61;27.19;101869.09;6306434;22;8915;-80
2021/07/08 10:43:43;;;;;;;;;2.20;2.20;;;;;35.46;26.29;101868.13;6308182;22;8777;-79
2021/07/08 10:46:38;;;;;;;;;5.00;5.00;;;;;35.08;27.19;101869.28;6307141;22;8807;-80
2021/07/08 10:49:41;;;;;;;;;3.00;3.00;;;;;35.24;26.71;101866.13;6307155;22;8861;-81
2021/07/08 10:52:47;;;;;;;;;5.40;5.40;;;;;35.38;27.58;101861.84;6306587;22;8823;-80
2021/07/08 10:55:45;;;;;;;;;4.60;4.60;;;;;34.97;26.68;101866.06;6309684;22;8804;-79
2021/07/08 10:58:55;;;;;;;;;3.00;3.00;;;;;34.67;27.32;101874.19;6307585;22;9510;-79
2021/07/08 11:01:52;;;;;;;;;3.00;3.00;;;;;34.87;26.80;101868.03;6287359;22;8813;-80
2021/07/08 11:05:05;;;;;;;;;3.80;3.80;;;;;34.99;26.65;101870.03;6309050;22;8784;-80
2021/07/08 11:08:02;;;;;;;;;4.00;4.00;;;;;35.29;27.79;101861.84;6286944;22;8803;-80
2021/07/08 11:10:57;;;;;;;;;4.00;4.00;;;;;35.65;26.85;101853.25;6307560;22;8776;-78
2021/07/08 11:13:55;;;;;;;;;5.00;5.00;;;;;34.92;28.06;101867.47;6307835;22;8801;-79
2021/07/08 11:17:12;;;;;;;;;7.20;7.20;;;;;34.99;28.47;101867.16;6309424;22;8792;-79
2021/07/08 11:20:30;;;;;;;;;3.00;3.00;;;;;34.48;26.58;101852.38;6287230;22;8781;-82
2021/07/08 11:23:26;;;;;;;;;3.60;3.60;;;;;33.94;27.88;101845.75;6306753;22;8811;-79
2021/07/08 11:26:52;;;;;;;;;4.60;4.60;;;;;34.76;28.04;101856.19;6309404;22;8807;-80
2021/07/08 11:29:57;;;;;;;;;4.20;4.20;;;;;35.15;28.38;101853.81;6307416;22;8869;-78
2021/07/08 11:32:57;;;;;;;;;4.80;4.80;;;;;35.23;27.35;101853.03;6308497;22;8784;-79
2021/07/08 11:36:00;;;;;;;;;5.20;5.20;;;;;34.83;27.36;101850.16;6308819;22;9482;-79
2021/07/08 11:38:56;;;;;;;;;2.20;2.20;;;;;35.57;27.93;101849.09;6307056;22;8891;-81
2021/07/08 11:42:01;;;;;;;;;3.60;3.60;;;;;35.76;27.56;101852.81;6288147;22;8804;-81
2021/07/08 11:45:00;;;;;;;;;3.20;3.20;;;;;36.07;26.35;101854.72;6286378;22;8811;-79
2021/07/08 11:47:58;;;;;;;;;2.00;2.00;;;;;36.43;25.19;101843.19;6306832;22;8866;-80
2021/07/08 11:50:54;;;;;;;;;3.60;3.60;;;;;36.53;26.65;101838.19;6286588;22;9477;-80
2021/07/08 11:53:52;;;;;;;;;4.00;4.00;;;;;36.03;27.42;101836.81;6307239;22;8801;-79
2021/07/08 11:56:54;;;;;;;;;4.40;4.40;;;;;36.11;26.80;101835.19;6306865;22;8785;-80
2021/07/08 11:59:50;;;;;;;;;5.60;5.60;;;;;36.29;27.43;101829.41;6307275;22;8821;-78
2021/07/08 12:02:46;;;;;;;;;10.40;10.40;;;;;36.72;27.39;101833.13;6309256;22;8780;-78
2021/07/08 12:05:41;;;;;;;;;4.00;4.00;;;;;36.61;26.33;101833.66;6308439;22;8865;-77
2021/07/08 12:08:40;;;;;;;;;3.00;3.00;;;;;35.36;26.28;101839.31;6307580;22;8769;-77
2021/07/08 12:11:43;;;;;;;;;6.20;6.20;;;;;35.69;27.83;101841.59;6286631;22;9498;-79
2021/07/08 12:14:41;;;;;;;;;3.20;3.20;;;;;35.80;26.71;101833.28;6287722;22;8813;-79
2021/07/08 12:17:37;;;;;;;;;5.00;5.00;;;;;36.36;26.12;101826.19;6306678;22;8784;-78
2021/07/08 12:20:36;;;;;;;;;3.20;3.20;;;;;36.72;25.61;101827.34;6308559;22;8808;-79
2021/07/08 12:23:38;;;;;;;;;3.20;3.20;;;;;36.48;25.21;101818.66;6306808;22;8785;-79
2021/07/08 12:26:35;;;;;;;;;3.20;3.00;;;;;36.78;28.12;101827.50;6306316;22;8797;-78
2021/07/08 12:29:40;;;;;;;;;3.40;3.40;;;;;36.02;25.59;101827.38;6306457;22;9613;-77
2021/07/08 12:32:36;;;;;;;;;4.00;4.00;;;;;36.40;26.44;101818.19;6307423;22;8885;-81
2021/07/08 12:35:50;;;;;;;;;2.00;2.00;;;;;36.50;25.76;101816.09;6318901;22;8804;-78
2021/07/08 12:38:47;;;;;;;;;2.60;2.60;;;;;36.02;25.97;101809.31;6321845;22;8869;-78
2021/07/08 12:41:47;;;;;;;;;2.40;2.40;;;;;36.32;26.41;101822.69;6311568;22;8805;-78
2021/07/08 12:44:44;;;;;;;;;4.20;4.20;;;;;36.82;26.10;101816.59;6308706;22;8765;-78
2021/07/08 12:47:47;;;;;;;;;3.80;3.80;;;;;35.80;25.05;101823.84;6307987;22;8777;-78
2021/07/08 12:50:45;;;;;;;;;2.00;2.00;;;;;36.50;25.12;101821.03;6306400;22;8784;-79
2021/07/08 12:53:41;;;;;;;;;2.80;2.80;;;;;36.70;25.61;101818.41;6306385;22;8922;-78
2021/07/08 12:56:36;;;;;;;;;0.00;0.00;;;;;36.42;26.17;101815.66;6308429;22;8862;-79
2021/07/08 12:59:32;;;;;;;;;2.20;2.20;;;;;36.23;26.04;101816.94;6309204;22;8874;-79
2021/07/08 13:02:31;;;;;;;;;2.00;2.00;;;;;36.51;25.73;101817.69;6311248;22;8818;-79
2021/07/08 13:05:36;;;;;;;;;1.60;1.60;;;;;36.41;25.89;101814.03;6308390;22;8789;-80
2021/07/08 13:08:32;;;;;;;;;2.80;2.80;;;;;36.31;23.56;101820.28;6307147;22;8883;-76
2021/07/08 13:11:28;;;;;;;;;2.00;2.00;;;;;36.30;24.11;101819.50;6306829;22;8799;-78
2021/07/08 13:14:25;;;;;;;;;2.60;2.60;;;;;36.28;25.34;101819.19;6306010;22;9490;-79
2021/07/08 13:17:30;;;;;;;;;3.60;3.60;;;;;36.35;26.60;101815.16;6306661;22;8795;-79
2021/07/08 13:20:28;;;;;;;;;2.00;2.00;;;;;36.65;25.71;101816.97;6285832;22;8789;-79
2021/07/08 13:23:25;;;;;;;;;1.20;1.20;;;;;35.92;24.96;101828.69;6306219;22;8773;-79
2021/07/08 13:26:22;;;;;;;;;0.60;0.60;;;;;35.04;26.86;101817.69;6306360;22;9637;-79
2021/07/08 13:29:23;;;;;;;;;1.80;1.80;;;;;35.36;27.00;101818.38;6309286;22;8866;-79
2021/07/08 13:32:20;;;;;;;;;2.60;2.60;;;;;34.99;26.35;101829.00;6287455;22;8785;-78
2021/07/08 13:35:16;;;;;;;;;2.80;2.80;;;;;34.81;26.25;101821.06;6309099;22;8781;-76
2021/07/08 13:38:31;;;;;;;;;2.00;2.00;;;;;35.54;26.50;101824.19;6309428;22;8773;-80
2021/07/08 13:41:30;;;;;;;;;0.00;0.00;;;;;35.97;27.17;101825.16;6308275;22;9483;-78
2021/07/08 13:44:28;;;;;;;;;1.20;1.20;;;;;35.79;25.83;101825.13;6309263;22;8773;-79
2021/07/08 13:47:26;;;;;;;;;1.00;1.00;;;;;35.97;25.79;101825.16;6290474;22;8861;-79
2021/07/08 13:50:29;;;;;;;;;0.40;0.40;;;;;35.32;24.98;101830.03;6309116;22;8781;-78